BGJN

Details ICAO BGJN (JAV)
Name Ilulissat
Region Greenland
Timezone America/Godthab (UTC-2.0)
Plans Departing 21
Arriving 40
Stats Elevation 95 ft / 29 m (AMSL)
Location 69.243200° -51.057100°
Runways 1
Magnetic Variation 30.441° W
Sunrise 2019-05-19 03:55:07 UTC / 2019-05-19 01:55:07 Local
Sunset 2019-05-20 02:49:06 UTC / 2019-05-20 00:49:06 Local
Advertisement - Login to hide

Runways

ID Width Length Bearing (true/mag) Surface Threshold Overrun Markings Lighting
08 98 ft / 30 m 2,775 ft / 846 m 35.69° / 66.14° CONCRETE 0 ft / 0 m 0 ft / 0 m APP EDGE THRESHOLD MALS
26 98 ft / 30 m 2,775 ft / 846 m 215.71° / 246.15° CONCRETE 0 ft / 0 m 0 ft / 0 m APP EDGE THRESHOLD MALS

Map

Weather


0- 5 10 15 20 25 30 35+ Temperature / °C

Clouds and Precipitation
Forecast for 2019-05-20 00:00 UTC. Updated 6 hours ago

Ground ~20,000 ft ~40,000 ft Winds

METAR

BGJN 200250Z AUTO 17005KT 9999NDV SCT220/// 01/M02 Q1020

TAF

Not found
Warning: Do not use this data for real-world aviation or navigation. No guarantee of current accuracy is given.